首页
METAR-TAF:

METAR-TAF

机场 :

Santa Cruz de Barahona, 多米尼加共和国

纬度: 18-12N, 经度: 071-06W, 海拔: 3米

当前天气观测

该预报发布于39分钟前的22:00 UTC
风速10节,风向东南
温度 31°C
湿度 71%
气压 1013 hPa
能见度10公里或以上
散云层高于2200英尺
多云层高于10000英尺

METAR: MDBH 282200Z 13010KT 9999 SCT022 BKN100 31/25 Q1013

时间: 18:39 (22:39 UTC)

预报

该预报发布于6小时和39分钟前的16:00 UTC
预报有效从28日的 18点(UTC)到 29日的 18点(UTC)
风速10节,风向东南
能见度10公里或以上
散云层高于2200英尺
多云层高于10000英尺
几率 30%
从 28日的 18点(UTC)到 29日的 00点(UTC)
能見度: 1000
少量云层高于1600英尺
多云层高于1600英尺
阴天层高于7000英尺
雷暴, 大雨
成为
从 29日的 02点(UTC)到 29日的 04点(UTC)
风速节,风向

TAF: MDBH 281600Z 2818/2918 COR 13010KT 9999 SCT022 BKN100 PROB30 2818/2900 1000 +TSRA FEW016 BKN016 OVC070 BECMG 2902/2904 00000KT

超过4000个机场的气象观测和天气预报(METAR&TAF报告)。

可查询的气象台以黄色和红色小点在地图上表示。

将鼠标移到小点上方,可查看气象台名称。

然后点击查看天气观测和预报。

如需切换地图:点击带黑十字的绿色按钮放大地图;点击带横线的绿色按钮缩小地图;或者点击绿色箭头查看邻近地区的地图。


METAR-TAF: